createdAt,value
2023-05-25T00:00:19.040Z,2.63
2023-05-25T00:05:21.092Z,2.67
2023-05-25T00:10:24.822Z,2.83
2023-05-25T00:15:26.894Z,2.10
2023-05-25T00:20:28.938Z,2.47
2023-05-25T00:25:30.837Z,2.57
2023-05-25T00:30:32.782Z,2.20
2023-05-25T00:35:34.819Z,3.10
2023-05-25T00:40:38.479Z,2.67
2023-05-25T00:45:40.422Z,2.57
2023-05-25T00:50:44.365Z,2.10
2023-05-25T00:55:49.955Z,2.73
2023-05-25T01:00:56.328Z,2.37
2023-05-25T01:05:58.986Z,2.40
2023-05-25T01:11:03.362Z,2.70
2023-05-25T01:16:06.811Z,2.70
2023-05-25T01:21:42.174Z,2.83
2023-05-25T01:26:48.875Z,2.53
2023-05-25T01:31:54.231Z,2.70
2023-05-25T01:36:56.988Z,2.70
2023-05-25T01:41:59.165Z,2.83
2023-05-25T01:47:10.649Z,3.00
2023-05-25T01:52:12.507Z,3.40
2023-05-25T01:57:17.662Z,2.53
2023-05-25T02:02:21.130Z,3.07
2023-05-25T02:07:23.573Z,2.80
2023-05-25T02:12:25.969Z,2.80
2023-05-25T02:17:28.115Z,2.80
2023-05-25T02:22:30.059Z,2.73
2023-05-25T02:27:31.925Z,3.37
2023-05-25T02:32:33.897Z,2.90
2023-05-25T02:37:36.562Z,3.03
2023-05-25T02:42:38.508Z,2.93
2023-05-25T02:47:40.902Z,2.40
2023-05-25T02:52:43.063Z,2.97
2023-05-25T02:57:45.146Z,3.20
2023-05-25T03:02:53.055Z,3.30
2023-05-25T03:07:55.021Z,2.63
2023-05-25T03:12:56.925Z,2.90
2023-05-25T03:18:01.439Z,2.63
2023-05-25T03:23:06.907Z,3.03
2023-05-25T03:28:09.483Z,3.00
2023-05-25T03:33:13.831Z,2.90
2023-05-25T03:38:19.554Z,2.33
2023-05-25T03:43:22.025Z,3.60
2023-05-25T03:48:24.302Z,3.07
2023-05-25T03:53:26.197Z,3.40
2023-05-25T03:58:28.097Z,2.77
2023-05-25T04:03:33.096Z,2.63
2023-05-25T04:08:35.195Z,3.00
2023-05-25T04:13:40.108Z,2.53
2023-05-25T04:18:43.390Z,2.90
2023-05-25T04:23:45.598Z,2.67
2023-05-25T04:28:48.297Z,3.03
2023-05-25T04:34:16.623Z,2.60
2023-05-25T04:39:38.117Z,3.20
2023-05-25T04:44:40.324Z,2.87
2023-05-25T04:49:42.977Z,2.97
2023-05-25T04:54:44.931Z,3.20
2023-05-25T04:59:49.204Z,3.50
2023-05-25T05:04:53.680Z,2.87
2023-05-25T05:09:56.099Z,3.00
2023-05-25T05:14:58.406Z,3.27
2023-05-25T05:20:01.104Z,3.20
2023-05-25T05:25:03.644Z,3.23
2023-05-25T05:30:06.376Z,2.90
2023-05-25T05:35:08.886Z,3.20
2023-05-25T05:40:18.541Z,3.00
2023-05-25T05:45:21.829Z,2.97
2023-05-25T05:50:26.417Z,3.03
2023-05-25T05:55:28.523Z,3.20
2023-05-25T06:00:30.907Z,3.40
2023-05-25T06:05:32.920Z,2.93
2023-05-25T06:10:36.031Z,3.70
2023-05-25T06:15:38.514Z,3.63
2023-05-25T06:20:45.517Z,3.10
2023-05-25T06:25:47.901Z,3.00
2023-05-25T06:30:50.084Z,3.60
2023-05-25T06:35:52.708Z,3.23
2023-05-25T06:40:54.650Z,3.40
2023-05-25T06:45:56.725Z,4.13
2023-05-25T06:50:58.757Z,3.40
2023-05-25T06:56:00.815Z,3.07
2023-05-25T07:01:02.986Z,4.10
2023-05-25T07:06:06.147Z,3.80
2023-05-25T07:11:10.652Z,4.50
2023-05-25T07:16:12.577Z,4.27
2023-05-25T07:21:14.522Z,4.03
2023-05-25T07:26:16.735Z,5.00
2023-05-25T07:31:18.647Z,3.57
2023-05-25T07:36:20.722Z,3.93
2023-05-25T07:41:22.899Z,3.53
2023-05-25T07:46:25.982Z,3.70
2023-05-25T07:51:30.203Z,3.80
2023-05-25T07:56:32.101Z,3.90
2023-05-25T08:01:34.002Z,4.23
2023-05-25T08:06:35.870Z,3.40
2023-05-25T08:11:38.054Z,5.10
2023-05-25T08:16:40.113Z,3.70
2023-05-25T08:21:42.199Z,3.43
2023-05-25T08:26:54.298Z,3.33
2023-05-25T08:31:57.551Z,4.10
2023-05-25T08:36:59.680Z,3.53
2023-05-25T08:42:02.036Z,3.70
2023-05-25T08:47:07.480Z,4.30
2023-05-25T08:52:18.220Z,3.90
2023-05-25T08:57:23.725Z,4.00
2023-05-25T09:02:52.518Z,2.97
2023-05-25T09:07:54.984Z,4.27
2023-05-25T09:12:57.721Z,4.20
2023-05-25T09:18:00.088Z,3.70
2023-05-25T09:23:03.348Z,3.87
2023-05-25T09:28:24.669Z,3.20
2023-05-25T09:33:28.822Z,3.60
2023-05-25T09:38:31.035Z,3.27
2023-05-25T09:48:43.256Z,3.03
2023-05-25T09:53:46.050Z,3.40
2023-05-25T09:58:48.082Z,3.43
2023-05-25T10:04:04.123Z,3.30
2023-05-25T10:09:11.220Z,2.70
2023-05-25T10:14:16.910Z,3.50
2023-05-25T10:19:27.140Z,3.30
2023-05-25T10:24:42.685Z,3.33
2023-05-25T10:29:47.921Z,4.00
2023-05-25T10:34:52.419Z,4.23
2023-05-25T10:39:57.100Z,4.77
2023-05-25T10:44:59.796Z,3.73
2023-05-25T10:50:03.029Z,3.33
2023-05-25T10:55:05.596Z,3.87
2023-05-25T11:00:08.985Z,4.00
2023-05-25T11:05:26.549Z,4.73
2023-05-25T11:10:50.551Z,4.37
2023-05-25T11:16:23.732Z,4.03
2023-05-25T11:21:31.246Z,4.07
2023-05-25T11:26:34.754Z,4.63
2023-05-25T11:31:42.449Z,5.00
2023-05-25T11:36:45.827Z,5.03
2023-05-25T11:42:11.280Z,4.20
2023-05-25T11:47:14.688Z,5.43
2023-05-25T11:52:22.176Z,4.87
2023-05-25T11:57:25.729Z,4.80
2023-05-25T12:02:28.153Z,4.40
2023-05-25T12:07:31.795Z,4.90
2023-05-25T12:12:41.296Z,4.60
2023-05-25T12:17:44.808Z,5.17
2023-05-25T12:22:47.470Z,5.53
2023-05-25T12:27:51.321Z,5.70
2023-05-25T12:32:55.088Z,4.77
2023-05-25T12:38:21.538Z,4.93
2023-05-25T12:43:23.878Z,4.60
2023-05-25T12:48:29.089Z,5.60
2023-05-25T12:53:31.432Z,5.50
2023-05-25T12:58:33.668Z,5.23
2023-05-25T13:03:35.710Z,4.87
2023-05-25T13:08:39.174Z,4.90
2023-05-25T13:13:41.140Z,5.90
2023-05-25T13:18:43.225Z,5.03
2023-05-25T13:23:45.497Z,4.77
2023-05-25T13:28:50.046Z,4.67
2023-05-25T13:33:52.143Z,4.67
2023-05-25T13:38:55.435Z,4.97
2023-05-25T13:43:58.610Z,5.10
2023-05-25T13:49:04.261Z,4.40
2023-05-25T13:54:06.590Z,4.50
2023-05-25T13:59:09.825Z,5.10
2023-05-25T14:04:14.864Z,4.60
2023-05-25T14:09:17.320Z,3.87
2023-05-25T14:14:30.871Z,4.20
2023-05-25T14:19:35.164Z,4.30
2023-05-25T14:24:37.072Z,4.00
2023-05-25T14:29:39.096Z,4.30
2023-05-25T14:34:41.640Z,4.07
2023-05-25T14:39:43.495Z,4.00
2023-05-25T14:44:45.401Z,3.60
2023-05-25T14:49:47.246Z,4.03
2023-05-25T14:54:49.197Z,4.20
2023-05-25T14:59:51.095Z,3.40
2023-05-25T15:04:54.545Z,4.80
2023-05-25T15:09:56.473Z,3.30
2023-05-25T15:14:58.394Z,4.27
2023-05-25T15:20:00.750Z,3.57
2023-05-25T15:25:02.930Z,3.50
2023-05-25T15:30:07.203Z,3.57
2023-05-25T15:35:09.487Z,4.03
2023-05-25T15:40:12.142Z,3.63
2023-05-25T15:45:14.091Z,3.40
2023-05-25T15:50:16.478Z,3.80
2023-05-25T15:55:18.450Z,3.60
2023-05-25T16:00:20.602Z,3.60
2023-05-25T16:05:22.721Z,3.37
2023-05-25T16:10:24.589Z,3.00
2023-05-25T16:15:26.687Z,3.23
2023-05-25T16:20:28.637Z,2.83
2023-05-25T16:25:30.636Z,2.50
2023-05-25T16:30:32.472Z,2.60
2023-05-25T16:35:34.395Z,3.07
2023-05-25T16:40:37.160Z,2.80
2023-05-25T16:45:39.070Z,2.70
2023-05-25T16:50:44.252Z,3.00
2023-05-25T16:55:46.237Z,3.07
2023-05-25T17:00:48.221Z,2.80
2023-05-25T17:05:52.362Z,3.03
2023-05-25T17:10:56.597Z,2.83
2023-05-25T17:15:58.755Z,3.23
2023-05-25T17:21:01.896Z,3.13
2023-05-25T17:26:04.141Z,3.90
2023-05-25T17:31:06.343Z,3.03
2023-05-25T17:36:08.361Z,3.40
2023-05-25T17:41:10.498Z,3.17
2023-05-25T17:46:12.365Z,3.20
2023-05-25T17:51:14.594Z,2.50
2023-05-25T17:56:16.473Z,2.63
2023-05-25T18:01:18.448Z,3.10
2023-05-25T18:06:20.823Z,2.83
2023-05-25T18:11:23.359Z,3.10
2023-05-25T18:16:25.436Z,2.90
2023-05-25T18:21:27.351Z,2.63
2023-05-25T18:26:29.364Z,2.90
2023-05-25T18:31:32.553Z,3.73
2023-05-25T18:36:38.235Z,2.90
2023-05-25T18:41:41.860Z,2.93
2023-05-25T18:46:45.270Z,2.73
2023-05-25T18:51:47.354Z,3.00
2023-05-25T18:56:49.247Z,3.20
2023-05-25T19:01:51.381Z,3.00
2023-05-25T19:06:53.322Z,3.67
2023-05-25T19:11:55.149Z,3.07
2023-05-25T19:16:57.042Z,3.27
2023-05-25T19:21:58.995Z,3.13
2023-05-25T19:27:04.429Z,2.70
2023-05-25T19:32:06.852Z,2.60
2023-05-25T19:37:11.302Z,2.67
2023-05-25T19:42:14.024Z,2.93
2023-05-25T19:47:15.950Z,3.10
2023-05-25T19:52:18.231Z,2.73
2023-05-25T19:57:20.993Z,2.87
2023-05-25T20:02:23.008Z,2.73
2023-05-25T20:07:25.052Z,3.10
2023-05-25T20:12:26.905Z,3.23
2023-05-25T20:17:28.724Z,4.40
2023-05-25T20:22:32.049Z,4.00
2023-05-25T20:27:34.734Z,3.63
2023-05-25T20:32:36.998Z,4.07
2023-05-25T20:37:39.353Z,3.90
2023-05-25T20:42:41.451Z,3.80
2023-05-25T20:47:43.418Z,3.10
2023-05-25T20:52:45.470Z,3.23
2023-05-25T20:57:47.524Z,4.27
2023-05-25T21:02:49.815Z,4.30
2023-05-25T21:07:52.050Z,3.00
2023-05-25T21:12:53.964Z,4.40
2023-05-25T21:17:56.900Z,3.87
2023-05-25T21:22:58.901Z,3.20
2023-05-25T21:28:00.841Z,3.60
2023-05-25T21:33:02.882Z,3.47
2023-05-25T21:38:04.939Z,3.43
2023-05-25T21:43:09.201Z,3.70
2023-05-25T21:48:13.902Z,3.93
2023-05-25T21:53:15.929Z,3.63
2023-05-25T21:58:18.325Z,4.27
2023-05-25T22:03:20.425Z,3.60
2023-05-25T22:08:22.426Z,3.83
2023-05-25T22:13:24.347Z,3.50
2023-05-25T22:18:26.412Z,3.80
2023-05-25T22:23:28.389Z,3.87
2023-05-25T22:28:30.367Z,4.37
2023-05-25T22:33:32.286Z,4.60
2023-05-25T22:38:36.279Z,4.10
2023-05-25T22:43:38.140Z,3.40
2023-05-25T22:48:40.663Z,3.80
2023-05-25T22:53:42.991Z,3.30
2023-05-25T22:58:44.921Z,4.10
2023-05-25T23:03:46.948Z,4.10
2023-05-25T23:08:49.025Z,4.40
2023-05-25T23:13:51.650Z,4.40
2023-05-25T23:18:53.788Z,4.07
2023-05-25T23:23:55.951Z,4.03
2023-05-25T23:28:57.897Z,3.80
2023-05-25T23:33:59.936Z,4.70
2023-05-25T23:39:01.833Z,4.40
2023-05-25T23:44:03.754Z,4.00
2023-05-25T23:49:05.662Z,4.37
2023-05-25T23:54:07.657Z,4.17
2023-05-25T23:59:09.610Z,4.10
